Time;durP1;ratioP1;P1;durP2;ratioP2;P2;SDS_P1;SDS_P2;PMS_P1;PMS_P2;Temp;Humidity;BMP_temperature;BMP_pressure;BME280_temperature;BME280_humidity;BME280_pressure;Samples;Min_cycle;Max_cycle;Signal;HPM_P1;HPM_P2
2020/12/14 00:00:10;;;;;;;65.57;23.67;;;;;;;4.38;79.42;100988.00;696377;28;22387;-62
2020/12/14 00:00:32;;;;;;;65.75;23.75;;;;;;;4.38;79.44;100978.13;692832;28;138863;-62
2020/12/14 00:00:54;;;;;;;64.28;24.02;;;;;;;4.37;79.50;100983.59;696217;28;47501;-63
2020/12/14 00:01:15;;;;;;;62.65;24.00;;;;;;;4.37;79.51;100987.13;696499;28;21567;-62
2020/12/14 00:01:37;;;;;;;61.85;24.25;;;;;;;4.36;79.61;100985.44;695499;28;46390;-63
2020/12/14 00:01:58;;;;;;;63.65;23.98;;;;;;;4.36;79.65;100979.22;695845;28;46412;-63
2020/12/14 00:02:19;;;;;;;60.78;23.83;;;;;;;4.36;79.59;100985.44;697008;28;22821;-63
2020/12/14 00:02:41;;;;;;;61.47;23.55;;;;;;;4.37;79.51;100988.97;697059;28;21684;-62
2020/12/14 00:03:03;;;;;;;63.65;23.60;;;;;;;4.34;79.69;100979.34;695540;28;46394;-63
2020/12/14 00:03:24;;;;;;;60.58;23.73;;;;;;;4.37;79.59;100987.13;695727;28;46384;-62
2020/12/14 00:03:45;;;;;;;58.22;23.13;;;;;;;4.37;79.83;100979.09;696334;28;23495;-62
2020/12/14 00:04:07;;;;;;;55.33;23.23;;;;;;;4.36;79.74;100974.75;696485;28;21308;-62
2020/12/14 00:04:28;;;;;;;60.03;22.65;;;;;;;4.37;79.74;100978.25;695901;28;46338;-62
2020/12/14 00:04:49;;;;;;;54.00;22.73;;;;;;;4.37;79.70;100975.59;696688;28;22757;-62
2020/12/14 00:05:11;;;;;;;64.50;24.33;;;;;;;4.37;79.63;100978.25;696504;28;21303;-62
2020/12/14 00:05:33;;;;;;;64.22;23.70;;;;;;;4.38;79.69;100979.97;695809;28;45225;-62
2020/12/14 00:05:54;;;;;;;65.13;24.95;;;;;;;4.37;79.73;100975.59;695289;28;47293;-62
2020/12/14 00:06:15;;;;;;;67.18;25.08;;;;;;;4.36;79.43;100973.88;696214;28;22992;-62
2020/12/14 00:06:37;;;;;;;66.03;24.00;;;;;;;4.37;79.50;100978.25;696322;28;21512;-62
2020/12/14 00:06:59;;;;;;;61.63;23.55;;;;;;;4.36;79.52;100984.56;696226;28;44536;-62
2020/12/14 00:07:20;;;;;;;62.03;23.95;;;;;;;4.36;79.44;100980.09;695668;28;45664;-61
2020/12/14 00:07:42;;;;;;;66.60;24.65;;;;;;;4.36;79.50;100985.44;697051;28;21563;-61
2020/12/14 00:08:03;;;;;;;68.82;25.45;;;;;;;4.36;79.57;100977.41;695546;28;46640;-62
2020/12/14 00:08:25;;;;;;;56.08;23.85;;;;;;;4.38;79.56;100985.31;696501;28;22399;-62
2020/12/14 00:08:47;;;;;;;61.95;24.75;;;;;;;4.36;79.70;100969.41;695855;28;46314;-62
2020/12/14 00:09:08;;;;;;;63.90;24.80;;;;;;;4.37;79.56;100986.28;696027;28;44454;-62
2020/12/14 00:09:31;;;;;;;64.03;24.63;;;;;;;4.36;79.59;100976.56;697051;28;21537;-62
2020/12/14 00:09:52;;;;;;;61.50;24.58;;;;;;;4.36;79.57;100984.56;695807;28;45985;-62
2020/12/14 00:10:14;;;;;;;62.88;23.90;;;;;;;4.37;79.49;100978.25;697220;28;10587;-62
2020/12/14 00:10:35;;;;;;;60.75;23.35;;;;;;;4.36;79.31;100973.88;697244;28;15381;-62
2020/12/14 00:10:57;;;;;;;64.97;25.20;;;;;;;4.34;79.31;100976.69;696790;28;23322;-61
2020/12/14 00:11:18;;;;;;;59.28;24.80;;;;;;;4.36;79.34;100976.56;696015;28;44536;-62
2020/12/14 00:11:39;;;;;;;57.53;24.15;;;;;;;4.37;79.22;100989.78;696473;28;23542;-61
2020/12/14 00:12:01;;;;;;;56.97;23.08;;;;;;;4.37;79.19;100986.28;696294;28;21536;-62
2020/12/14 00:12:22;;;;;;;58.53;23.10;;;;;;;4.37;79.35;100986.28;695979;28;40369;-62
2020/12/14 00:12:43;;;;;;;62.40;24.17;;;;;;;4.37;79.25;100980.94;696972;28;22374;-63
2020/12/14 00:13:05;;;;;;;61.20;24.38;;;;;;;4.37;79.38;100980.94;696773;28;22400;-61
2020/12/14 00:13:26;;;;;;;54.38;23.60;;;;;;;4.37;79.38;100984.44;696021;28;45247;-62
2020/12/14 00:13:48;;;;;;;56.55;22.88;;;;;;;4.38;79.50;100977.28;697036;28;21520;-62
2020/12/14 00:14:09;;;;;;;59.90;24.23;;;;;;;4.38;79.36;100978.13;695497;28;46338;-61
2020/12/14 00:14:30;;;;;;;56.80;22.85;;;;;;;4.39;79.50;100981.63;696357;28;23497;-62
2020/12/14 00:14:52;;;;;;;53.65;22.88;;;;;;;4.39;79.36;100981.63;698876;28;21622;-62
2020/12/14 00:15:13;;;;;;;60.83;24.65;;;;;;;4.38;79.51;100978.13;698114;28;44400;-62
2020/12/14 00:15:34;;;;;;;65.22;24.33;;;;;;;4.39;79.59;100984.31;699402;28;22399;-62
2020/12/14 00:15:56;;;;;;;62.60;23.65;;;;;;;4.39;79.39;100968.25;698697;28;23256;-62
2020/12/14 00:16:17;;;;;;;61.47;24.40;;;;;;;4.39;79.53;100978.97;698488;28;46473;-60
2020/12/14 00:16:40;;;;;;;60.88;24.35;;;;;;;4.39;79.38;100974.50;698621;28;23521;-62
2020/12/14 00:17:01;;;;;;;63.58;24.90;;;;;;;4.39;79.72;100978.97;695009;28;69440;-62
2020/12/14 00:17:23;;;;;;;63.05;24.73;;;;;;;4.39;79.37;100973.63;696568;28;21546;-61
2020/12/14 00:17:44;;;;;;;65.38;24.17;;;;;;;4.40;79.38;100972.66;696098;28;46147;-61
2020/12/14 00:18:06;;;;;;;65.85;24.77;;;;;;;4.39;79.34;100969.13;696755;28;22423;-62
2020/12/14 00:18:27;;;;;;;62.63;24.02;;;;;;;4.39;79.54;100969.13;696236;28;44181;-62
2020/12/14 00:18:48;;;;;;;67.70;24.35;;;;;;;4.39;79.56;100970.94;696341;28;22394;-62
2020/12/14 00:19:09;;;;;;;63.47;24.00;;;;;;;4.39;79.29;100974.50;696451;28;22358;-62
2020/12/14 00:19:31;;;;;;;63.53;24.38;;;;;;;4.39;79.50;100978.97;696492;28;21546;-62
2020/12/14 00:19:53;;;;;;;62.38;24.45;;;;;;;4.37;79.29;100964.88;695741;28;45512;-62
2020/12/14 00:20:14;;;;;;;61.97;23.90;;;;;;;4.39;79.49;100981.63;696571;28;29280;-61
2020/12/14 00:20:35;;;;;;;61.28;24.60;;;;;;;4.38;79.43;100975.44;696856;28;23426;-62
2020/12/14 00:20:56;;;;;;;62.45;24.35;;;;;;;4.37;79.60;100979.09;696804;28;22403;-62
2020/12/14 00:21:18;;;;;;;60.42;24.20;;;;;;;4.37;79.54;100971.06;697796;28;944;-62
2020/12/14 00:21:40;;;;;;;60.00;23.63;;;;;;;4.37;79.27;100978.25;697108;28;955;-62
2020/12/14 00:22:01;;;;;;;66.15;24.08;;;;;;;4.37;79.37;100978.25;696911;28;9608;-60
2020/12/14 00:22:22;;;;;;;63.20;24.02;;;;;;;4.37;79.42;100981.78;697297;28;11087;-62
2020/12/14 00:22:44;;;;;;;61.95;24.10;;;;;;;4.38;79.30;100983.47;696867;28;22997;-62
2020/12/14 00:23:05;;;;;;;63.35;23.83;;;;;;;4.37;79.18;100987.13;696336;28;34550;-60
2020/12/14 00:23:28;;;;;;;60.25;23.30;;;;;;;4.38;79.34;100978.13;697014;28;22393;-62
2020/12/14 00:23:51;;;;;;;63.47;24.67;;;;;;;4.38;79.20;100970.09;694823;28;67519;-61
2020/12/14 00:24:13;;;;;;;60.53;24.83;;;;;;;4.38;79.36;100978.13;694091;28;69130;-62
2020/12/14 00:24:34;;;;;;;58.42;23.25;;;;;;;4.38;79.31;100979.97;695363;28;44813;-62
2020/12/14 00:24:56;;;;;;;53.35;22.42;;;;;;;4.38;79.43;100980.81;690398;28;44382;-60
2020/12/14 00:25:17;;;;;;;57.38;23.00;;;;;;;4.39;79.30;100970.94;690886;28;22420;-62
2020/12/14 00:25:38;;;;;;;54.58;22.92;;;;;;;4.38;79.44;100978.13;691222;28;21585;-62
2020/12/14 00:26:00;;;;;;;59.27;22.93;;;;;;;4.39;79.28;100979.84;691771;28;23533;-62
2020/12/14 00:26:21;;;;;;;58.95;22.67;;;;;;;4.39;79.25;100979.84;694068;28;46335;-61
2020/12/14 00:26:43;;;;;;;61.55;23.50;;;;;;;4.41;79.38;100982.38;695184;28;23438;-62
2020/12/14 00:27:04;;;;;;;60.47;23.98;;;;;;;4.39;79.43;100971.81;695694;28;45960;-62
2020/12/14 00:27:26;;;;;;;62.75;23.75;;;;;;;4.40;79.42;100975.31;695952;28;21560;-62
2020/12/14 00:27:47;;;;;;;55.15;23.00;;;;;;;4.40;79.24;100983.34;696999;28;21298;-62
2020/12/14 00:28:08;;;;;;;57.00;22.50;;;;;;;4.40;79.30;100975.31;696813;28;22413;-62
2020/12/14 00:28:29;;;;;;;65.32;24.98;;;;;;;4.40;79.11;100980.66;696799;28;22413;-61
2020/12/14 00:28:51;;;;;;;59.28;23.23;;;;;;;4.40;79.14;100972.66;697597;28;1111;-62
2020/12/14 00:29:13;;;;;;;55.15;22.70;;;;;;;4.40;79.22;100970.81;696636;28;22363;-62
2020/12/14 00:29:34;;;;;;;53.13;23.10;;;;;;;4.40;79.00;100981.50;695540;28;46305;-62
2020/12/14 00:29:55;;;;;;;55.33;22.40;;;;;;;4.41;79.13;100977.03;696486;28;22479;-61
2020/12/14 00:30:16;;;;;;;57.75;22.27;;;;;;;4.41;79.29;100974.34;696963;28;23482;-60
2020/12/14 00:30:38;;;;;;;54.83;22.30;;;;;;;4.41;79.40;100971.69;696500;28;32309;-62
2020/12/14 00:30:59;;;;;;;55.58;22.40;;;;;;;4.41;79.27;100977.03;696823;28;22423;-61
2020/12/14 00:31:21;;;;;;;52.42;22.38;;;;;;;4.40;79.37;100976.16;696830;28;23484;-62
2020/12/14 00:31:42;;;;;;;56.33;23.10;;;;;;;4.42;79.27;100970.69;696517;28;33034;-61
2020/12/14 00:32:04;;;;;;;58.15;22.52;;;;;;;4.42;79.40;100970.69;696844;28;22301;-61
2020/12/14 00:32:25;;;;;;;54.85;22.90;;;;;;;4.42;79.17;100974.22;695632;28;45269;-61
2020/12/14 00:32:46;;;;;;;54.65;22.30;;;;;;;4.41;79.26;100967.16;696374;28;23510;-62
2020/12/14 00:33:08;;;;;;;54.63;22.00;;;;;;;4.42;79.25;100970.69;697219;28;10453;-61
2020/12/14 00:33:29;;;;;;;57.05;23.45;;;;;;;4.42;79.27;100978.69;695877;28;44057;-60
2020/12/14 00:33:51;;;;;;;54.08;22.08;;;;;;;4.42;79.06;100976.03;696570;28;22337;-61
2020/12/14 00:34:12;;;;;;;53.50;22.23;;;;;;;4.42;79.23;100973.34;695869;28;45282;-62
2020/12/14 00:34:33;;;;;;;54.22;22.85;;;;;;;4.43;79.33;100977.72;696537;28;23430;-60
2020/12/14 00:34:55;;;;;;;55.63;22.88;;;;;;;4.43;79.27;100973.22;696284;28;21147;-62
2020/12/14 00:35:16;;;;;;;55.00;22.45;;;;;;;4.43;79.16;100973.22;695354;28;44329;-61
2020/12/14 00:35:37;;;;;;;55.13;22.52;;;;;;;4.44;79.08;100977.59;696509;28;22384;-62
2020/12/14 00:35:59;;;;;;;56.42;22.98;;;;;;;4.45;79.12;100981.13;696816;28;22408;-62
2020/12/14 00:36:20;;;;;;;53.95;22.20;;;;;;;4.43;79.21;100975.91;696353;28;44542;-61
2020/12/14 00:36:43;;;;;;;56.97;22.35;;;;;;;4.43;79.23;100973.22;696803;28;23494;-62
2020/12/14 00:37:06;;;;;;;54.28;22.15;;;;;;;4.44;79.14;100974.94;694772;28;67544;-62
2020/12/14 00:37:27;;;;;;;55.95;22.55;;;;;;;4.43;79.25;100975.91;694384;28;67297;-62
2020/12/14 00:37:49;;;;;;;59.90;22.45;;;;;;;4.44;79.25;100980.28;695613;28;44387;-62
2020/12/14 00:38:10;;;;;;;56.88;22.88;;;;;;;4.44;79.31;100979.44;696479;28;22462;-62
2020/12/14 00:38:33;;;;;;;55.58;22.77;;;;;;;4.43;79.25;100975.91;696175;28;45239;-60
2020/12/14 00:38:54;;;;;;;51.67;22.52;;;;;;;4.44;79.28;100979.44;696033;28;45245;-62
2020/12/14 00:39:15;;;;;;;51.47;22.17;;;;;;;4.46;79.27;100980.16;696642;28;23600;-62
2020/12/14 00:39:37;;;;;;;52.90;22.30;;;;;;;4.46;79.29;100974.81;696318;28;21543;-63
2020/12/14 00:39:58;;;;;;;55.08;22.05;;;;;;;4.46;79.26;100982.81;695601;28;45284;-62
2020/12/14 00:40:20;;;;;;;49.05;22.00;;;;;;;4.45;79.30;100978.44;695772;28;44400;-60
2020/12/14 00:40:41;;;;;;;53.83;22.33;;;;;;;4.46;79.21;100977.47;696978;28;21436;-62
2020/12/14 00:41:02;;;;;;;54.10;22.27;;;;;;;4.46;79.38;100978.31;696702;28;23535;-62
2020/12/14 00:41:24;;;;;;;54.65;22.60;;;;;;;4.47;79.37;100980.03;696827;28;22478;-60
2020/12/14 00:41:45;;;;;;;52.67;22.17;;;;;;;4.47;79.32;100974.66;697149;28;14832;-62
2020/12/14 00:42:07;;;;;;;50.22;21.67;;;;;;;4.48;79.28;100983.53;696089;28;46167;-62
2020/12/14 00:42:28;;;;;;;50.00;22.42;;;;;;;4.47;79.35;100976.50;696651;28;20281;-60
2020/12/14 00:42:49;;;;;;;50.63;21.15;;;;;;;4.49;79.27;100977.22;696461;28;23497;-62
2020/12/14 00:43:11;;;;;;;50.47;21.40;;;;;;;4.49;79.32;100979.88;696384;28;21681;-62
2020/12/14 00:43:32;;;;;;;55.00;22.65;;;;;;;4.49;79.29;100977.22;695920;28;44403;-62
2020/12/14 00:43:53;;;;;;;55.63;22.13;;;;;;;4.49;79.14;100978.06;696749;28;22419;-62
2020/12/14 00:44:15;;;;;;;48.05;21.40;;;;;;;4.48;79.23;100983.53;696699;28;23431;-62
2020/12/14 00:44:36;;;;;;;51.25;21.13;;;;;;;4.49;79.02;100978.06;695972;28;44406;-62
2020/12/14 00:44:58;;;;;;;51.83;21.42;;;;;;;4.49;79.22;100977.22;696732;28;22512;-61
2020/12/14 00:45:19;;;;;;;52.03;22.40;;;;;;;4.48;78.99;100972.81;695627;28;47148;-62
2020/12/14 00:45:40;;;;;;;53.00;21.73;;;;;;;4.49;78.92;100971.88;696362;28;22409;-61
2020/12/14 00:46:01;;;;;;;50.22;21.40;;;;;;;4.46;79.21;100974.81;696855;28;8706;-61
2020/12/14 00:46:23;;;;;;;50.70;21.98;;;;;;;4.46;79.07;100969.44;696359;28;22390;-62
2020/12/14 00:46:45;;;;;;;54.45;22.83;;;;;;;4.47;78.96;100968.47;697501;28;853;-62
2020/12/14 00:47:06;;;;;;;53.33;23.30;;;;;;;4.45;79.15;100967.75;696058;28;46316;-60
2020/12/14 00:47:27;;;;;;;56.35;23.17;;;;;;;4.46;79.02;100964.94;696764;28;4306;-62
2020/12/14 00:47:49;;;;;;;55.05;21.60;;;;;;;4.47;79.10;100968.47;696960;28;24676;-62
2020/12/14 00:48:10;;;;;;;50.78;22.05;;;;;;;4.47;78.99;100963.13;696020;28;46282;-62
2020/12/14 00:48:31;;;;;;;51.97;21.92;;;;;;;4.46;78.98;100967.63;696454;28;23390;-62
2020/12/14 00:48:53;;;;;;;53.28;22.77;;;;;;;4.47;79.00;100968.47;699037;28;25966;-62
2020/12/14 00:49:14;;;;;;;52.70;22.63;;;;;;;4.46;78.94;100964.94;699443;28;22401;-62
2020/12/14 00:49:36;;;;;;;54.65;22.63;;;;;;;4.46;78.94;100962.25;699150;28;23272;-62
2020/12/14 00:49:57;;;;;;;52.75;22.25;;;;;;;4.47;78.89;100969.31;698074;28;46295;-62
2020/12/14 00:50:19;;;;;;;53.08;21.60;;;;;;;4.47;78.94;100968.47;699698;28;1020;-62
2020/12/14 00:50:40;;;;;;;53.20;22.30;;;;;;;4.47;79.01;100971.16;698517;28;22515;-61
2020/12/14 00:51:01;;;;;;;49.20;21.90;;;;;;;4.46;79.16;100970.28;696923;28;5651;-61
2020/12/14 00:51:27;;;;;;;49.42;21.20;;;;;;;4.47;79.04;100976.50;695737;28;46313;-62
2020/12/14 00:51:48;;;;;;;53.35;21.98;;;;;;;4.45;79.08;100973.09;693880;28;76076;-62
2020/12/14 00:52:09;;;;;;;52.08;21.52;;;;;;;4.46;79.20;100974.81;696841;28;22420;-61
2020/12/14 00:52:31;;;;;;;49.47;21.65;;;;;;;4.47;79.33;100972.00;695897;28;47205;-60
2020/12/14 00:52:52;;;;;;;53.00;22.40;;;;;;;4.46;79.20;100964.94;696277;28;21566;-60
2020/12/14 00:53:14;;;;;;;54.42;22.27;;;;;;;4.47;79.43;100977.34;696042;28;46367;-61
2020/12/14 00:53:36;;;;;;;51.38;21.95;;;;;;;4.46;79.14;100964.09;696849;28;22422;-61
2020/12/14 00:53:58;;;;;;;52.13;21.73;;;;;;;4.47;79.01;100971.16;695893;28;46459;-61
2020/12/14 00:54:20;;;;;;;47.80;21.90;;;;;;;4.47;79.06;100969.31;695622;28;46368;-62
2020/12/14 00:54:41;;;;;;;50.63;22.88;;;;;;;4.47;79.15;100966.66;695630;28;46655;-62
2020/12/14 00:55:04;;;;;;;50.22;22.15;;;;;;;4.48;79.02;100972.81;696701;28;22403;-61
2020/12/14 00:55:25;;;;;;;49.13;21.33;;;;;;;4.49;79.12;100967.34;694633;28;69733;-62
2020/12/14 00:55:46;;;;;;;48.10;21.23;;;;;;;4.48;79.14;100973.69;696136;28;23515;-63
2020/12/14 00:56:08;;;;;;;49.80;20.77;;;;;;;4.49;79.02;100972.69;695142;28;23495;-61
2020/12/14 00:56:29;;;;;;;49.80;22.35;;;;;;;4.48;78.79;100972.81;695875;28;45339;-62
2020/12/14 00:56:50;;;;;;;44.70;20.88;;;;;;;4.48;79.00;100973.69;696596;28;22363;-61
2020/12/14 00:57:13;;;;;;;50.28;20.95;;;;;;;4.50;78.93;100978.91;695959;28;46259;-62
2020/12/14 00:57:34;;;;;;;52.42;21.42;;;;;;;4.49;79.12;100974.53;695670;28;32071;-61
2020/12/14 00:57:55;;;;;;;49.92;21.88;;;;;;;4.50;78.98;100973.56;696085;28;23709;-62
2020/12/14 00:58:16;;;;;;;48.33;21.50;;;;;;;4.49;79.09;100970.03;696465;28;22406;-62
2020/12/14 00:58:38;;;;;;;50.78;22.00;;;;;;;4.50;79.14;100977.09;695184;28;46267;-61
2020/12/14 00:58:59;;;;;;;49.08;21.67;;;;;;;4.47;79.11;100966.66;696010;28;23485;-62
2020/12/14 00:59:20;;;;;;;51.03;21.45;;;;;;;4.48;79.23;100971.03;696469;28;23209;-62
2020/12/14 00:59:42;;;;;;;52.83;21.13;;;;;;;4.49;79.11;100972.69;695807;28;46310;-61
2020/12/14 01:00:04;;;;;;;50.10;20.95;;;;;;;4.48;79.05;100971.03;696661;28;21554;-62
2020/12/14 01:00:25;;;;;;;48.33;20.60;;;;;;;4.49;79.01;100977.22;696076;28;29083;-61
2020/12/14 01:00:46;;;;;;;46.95;20.23;;;;;;;4.49;78.99;100974.53;697178;28;1240;-62
2020/12/14 01:01:07;;;;;;;48.70;20.95;;;;;;;4.48;79.03;100971.03;696674;28;12381;-61
2020/12/14 01:01:29;;;;;;;52.90;22.13;;;;;;;4.49;78.86;100974.53;695667;28;40876;-61
2020/12/14 01:01:51;;;;;;;53.83;22.70;;;;;;;4.48;79.08;100975.50;695700;28;45817;-62
2020/12/14 01:02:12;;;;;;;52.58;21.40;;;;;;;4.49;78.90;100977.22;697044;28;13082;-61
2020/12/14 01:02:34;;;;;;;49.53;20.52;;;;;;;4.49;78.99;100974.53;696896;28;21529;-62
2020/12/14 01:02:55;;;;;;;47.08;20.77;;;;;;;4.49;79.01;100971.88;696245;28;25781;-61
2020/12/14 01:03:17;;;;;;;47.88;20.98;;;;;;;4.50;79.08;100969.06;696859;28;6731;-61
2020/12/14 01:03:38;;;;;;;44.55;19.70;;;;;;;4.50;79.00;100970.91;695609;28;44344;-62
2020/12/14 01:03:59;;;;;;;49.35;21.48;;;;;;;4.49;78.92;100975.38;696801;28;22152;-62
2020/12/14 01:04:21;;;;;;;50.00;21.13;;;;;;;4.50;79.11;100976.25;695865;28;46200;-60
2020/12/14 01:04:42;;;;;;;50.08;20.55;;;;;;;4.50;79.08;100985.09;697189;28;1632;-61
2020/12/14 01:05:04;;;;;;;50.60;21.73;;;;;;;4.46;79.01;100970.28;695294;28;46298;-62
2020/12/14 01:05:25;;;;;;;49.63;21.80;;;;;;;4.49;79.09;100977.22;696070;28;22382;-61
2020/12/14 01:05:46;;;;;;;50.90;21.98;;;;;;;4.47;79.17;100977.34;696195;28;23569;-62
2020/12/14 01:06:08;;;;;;;49.60;21.73;;;;;;;4.50;79.28;100984.25;695092;28;44394;-61
2020/12/14 01:06:29;;;;;;;52.55;22.08;;;;;;;4.50;79.16;100985.09;696134;28;22388;-61
2020/12/14 01:06:52;;;;;;;53.33;21.65;;;;;;;4.50;79.22;100985.09;695488;28;46346;-61
2020/12/14 01:07:13;;;;;;;48.60;20.75;;;;;;;4.49;79.09;100986.06;696072;28;43990;-60
2020/12/14 01:07:35;;;;;;;47.10;19.55;;;;;;;4.50;79.18;100984.25;695096;28;44416;-62
2020/12/14 01:07:56;;;;;;;47.85;19.90;;;;;;;4.49;79.27;100979.88;696470;28;22419;-61
2020/12/14 01:08:20;;;;;;;48.97;20.80;;;;;;;4.49;79.25;100982.56;696281;28;22774;-62
2020/12/14 01:08:42;;;;;;;46.63;20.10;;;;;;;4.50;79.15;100986.94;693956;28;92539;-61
2020/12/14 01:09:03;;;;;;;49.30;21.20;;;;;;;4.50;79.35;100981.59;695078;28;69408;-60
2020/12/14 01:09:25;;;;;;;49.38;21.02;;;;;;;4.50;79.23;100985.09;696714;28;21498;-62
2020/12/14 01:09:46;;;;;;;50.92;21.52;;;;;;;4.50;79.30;100982.44;697128;28;1343;-61
2020/12/14 01:10:08;;;;;;;50.47;21.27;;;;;;;4.50;79.27;100985.09;696436;28;18062;-62
2020/12/14 01:10:29;;;;;;;55.95;20.98;;;;;;;4.49;79.13;100980.72;696206;28;23419;-62
2020/12/14 01:10:50;;;;;;;56.45;21.45;;;;;;;4.49;79.12;100982.56;696416;28;22458;-60
2020/12/14 01:11:13;;;;;;;49.47;21.70;;;;;;;4.50;79.27;100986.94;697065;28;1956;-62
2020/12/14 01:11:34;;;;;;;52.83;21.65;;;;;;;4.49;79.35;100980.72;695682;28;44569;-61
2020/12/14 01:11:55;;;;;;;50.53;21.38;;;;;;;4.50;79.26;100978.91;696697;28;1340;-61
2020/12/14 01:12:17;;;;;;;49.45;21.00;;;;;;;4.50;79.25;100985.09;695321;28;46393;-61
2020/12/14 01:12:38;;;;;;;49.35;20.33;;;;;;;4.50;78.97;100986.94;696108;28;22388;-62
2020/12/14 01:13:00;;;;;;;47.58;20.92;;;;;;;4.49;78.96;100980.72;696386;28;14466;-62
2020/12/14 01:13:21;;;;;;;47.38;21.25;;;;;;;4.50;79.02;100981.59;696044;28;34519;-62
2020/12/14 01:13:45;;;;;;;45.67;21.42;;;;;;;4.49;78.90;100986.06;696770;28;23486;-62
2020/12/14 01:14:07;;;;;;;44.90;20.13;;;;;;;4.49;78.97;100987.91;694153;28;90731;-62
2020/12/14 01:14:28;;;;;;;46.72;20.70;;;;;;;4.49;79.07;100987.91;695806;28;44437;-62
2020/12/14 01:14:49;;;;;;;48.33;20.75;;;;;;;4.46;78.73;100980.16;694996;28;22380;-62
2020/12/14 01:15:10;;;;;;;49.40;21.30;;;;;;;4.50;78.72;100984.25;693576;28;46301;-60
2020/12/14 01:15:32;;;;;;;52.25;22.10;;;;;;;4.50;78.89;100990.47;694774;28;24308;-61
2020/12/14 01:15:53;;;;;;;53.78;22.50;;;;;;;4.50;78.77;100987.78;694884;28;21593;-61
2020/12/14 01:16:15;;;;;;;48.42;21.17;;;;;;;4.50;78.91;100986.94;694610;28;22247;-62
2020/12/14 01:16:36;;;;;;;45.40;20.45;;;;;;;4.50;78.72;100998.47;694495;28;43001;-62
2020/12/14 01:16:58;;;;;;;43.25;20.27;;;;;;;4.51;78.84;100993.97;696679;28;23482;-60
2020/12/14 01:17:19;;;;;;;44.45;20.75;;;;;;;4.50;78.90;100986.94;695846;28;44402;-62
2020/12/14 01:17:40;;;;;;;45.20;20.05;;;;;;;4.50;78.72;100993.13;696634;28;23502;-62
2020/12/14 01:18:02;;;;;;;51.13;21.10;;;;;;;4.51;78.89;100992.16;696618;28;21578;-63
2020/12/14 01:18:23;;;;;;;49.67;20.65;;;;;;;4.51;78.91;100991.28;695617;28;46312;-61
2020/12/14 01:18:44;;;;;;;48.70;21.38;;;;;;;4.52;78.96;100993.00;695409;28;46366;-60
2020/12/14 01:19:05;;;;;;;56.33;22.20;;;;;;;4.50;78.93;100998.47;696861;28;21547;-61
2020/12/14 01:19:27;;;;;;;51.63;22.23;;;;;;;4.51;79.08;101000.19;696630;28;23759;-61
2020/12/14 01:19:49;;;;;;;46.85;21.58;;;;;;;4.53;78.98;100996.50;697368;28;900;-62
2020/12/14 01:20:13;;;;;;;44.28;20.85;;;;;;;4.54;79.07;101008.91;696694;28;24351;-62
2020/12/14 01:20:35;;;;;;;47.42;20.45;;;;;;;4.53;78.96;100997.38;693518;28;114782;-60
2020/12/14 01:20:56;;;;;;;48.60;20.15;;;;;;;4.53;79.17;101010.75;696169;28;21813;-62
2020/12/14 01:21:21;;;;;;;43.65;19.90;;;;;;;4.54;79.06;100996.38;695644;28;44567;-61
2020/12/14 01:21:42;;;;;;;51.20;20.98;;;;;;;4.55;79.15;101002.59;693935;28;92334;-62
2020/12/14 01:22:04;;;;;;;51.85;20.88;;;;;;;4.55;79.02;101003.44;695560;28;46326;-61
2020/12/14 01:22:26;;;;;;;47.25;20.77;;;;;;;4.56;79.21;101001.59;696485;28;23484;-62
2020/12/14 01:22:47;;;;;;;49.90;21.85;;;;;;;4.55;79.26;100998.09;695244;28;46883;-61
2020/12/14 01:23:08;;;;;;;49.22;21.13;;;;;;;4.55;79.32;101006.13;696253;28;23241;-62
2020/12/14 01:23:30;;;;;;;47.95;20.70;;;;;;;4.54;79.40;100992.88;695643;28;46301;-61
2020/12/14 01:23:52;;;;;;;46.50;20.75;;;;;;;4.54;79.09;101004.41;696697;28;22449;-62
2020/12/14 01:24:14;;;;;;;46.88;20.42;;;;;;;4.55;79.11;101007.94;695220;28;70184;-62
2020/12/14 01:24:35;;;;;;;48.08;19.75;;;;;;;4.55;79.11;101000.75;696307;28;24280;-62
2020/12/14 01:24:56;;;;;;;46.17;20.33;;;;;;;4.56;79.05;100994.44;696275;28;17843;-62
2020/12/14 01:25:19;;;;;;;48.42;21.25;;;;;;;4.57;79.16;101000.63;699833;28;1003;-62
2020/12/14 01:25:40;;;;;;;47.78;21.92;;;;;;;4.57;79.15;100997.97;699257;28;22509;-62
2020/12/14 01:26:02;;;;;;;46.42;21.05;;;;;;;4.56;79.18;100990.91;698776;28;37053;-62
2020/12/14 01:26:23;;;;;;;48.67;20.95;;;;;;;4.55;79.23;100989.22;699063;28;23200;-62
2020/12/14 01:26:44;;;;;;;47.03;20.40;;;;;;;4.55;79.13;100997.25;698495;28;28840;-62
2020/12/14 01:27:06;;;;;;;49.78;21.55;;;;;;;4.55;79.15;100991.91;698840;28;22461;-62
2020/12/14 01:27:27;;;;;;;49.28;21.52;;;;;;;4.53;79.21;100993.84;699329;28;22383;-61
2020/12/14 01:27:48;;;;;;;48.05;21.40;;;;;;;4.53;79.02;100992.03;697973;28;46403;-61
2020/12/14 01:28:11;;;;;;;53.15;21.08;;;;;;;4.53;79.03;100994.69;699027;28;22399;-61
2020/12/14 01:28:35;;;;;;;51.10;21.23;;;;;;;4.55;79.04;100991.91;698632;28;38945;-60
2020/12/14 01:28:56;;;;;;;50.80;21.13;;;;;;;4.54;79.37;100993.69;697660;28;24366;-62
2020/12/14 01:29:18;;;;;;;48.25;21.10;;;;;;;4.54;79.19;100993.69;696257;28;21975;-62
2020/12/14 01:29:39;;;;;;;48.80;21.08;;;;;;;4.53;79.15;100989.34;696106;28;32545;-62
2020/12/14 01:30:00;;;;;;;44.88;20.98;;;;;;;4.53;79.19;100991.16;697155;28;9747;-62
2020/12/14 01:30:24;;;;;;;46.72;20.40;;;;;;;4.53;79.15;100993.84;697534;28;952;-61
2020/12/14 01:30:45;;;;;;;51.08;21.33;;;;;;;4.53;78.94;101002.72;694834;28;69297;-62
2020/12/14 01:31:07;;;;;;;51.17;21.20;;;;;;;4.53;79.10;100996.50;695734;28;46376;-62
2020/12/14 01:31:28;;;;;;;44.17;19.85;;;;;;;4.53;78.98;100997.38;696756;28;22556;-62
2020/12/14 01:31:49;;;;;;;46.47;20.50;;;;;;;4.54;78.89;100995.53;696596;28;24154;-62
2020/12/14 01:32:11;;;;;;;45.15;19.90;;;;;;;4.52;78.90;100995.66;695932;28;44509;-62
2020/12/14 01:32:32;;;;;;;44.45;20.15;;;;;;;4.51;78.96;100994.84;696329;28;21694;-61
2020/12/14 01:32:53;;;;;;;48.92;21.13;;;;;;;4.51;79.03;100992.16;695611;28;42530;-62
2020/12/14 01:33:15;;;;;;;51.55;21.58;;;;;;;4.52;79.13;100995.66;696293;28;17180;-62
2020/12/14 01:33:36;;;;;;;51.10;21.02;;;;;;;4.51;79.05;101000.19;696904;28;23350;-61
2020/12/14 01:33:58;;;;;;;51.83;20.73;;;;;;;4.51;79.14;100994.84;695810;28;46336;-62
2020/12/14 01:34:19;;;;;;;47.72;21.38;;;;;;;4.51;78.97;101002.84;696638;28;21595;-62
2020/12/14 01:34:40;;;;;;;49.03;20.42;;;;;;;4.51;79.18;101000.19;696925;28;21583;-62
2020/12/14 01:35:01;;;;;;;46.53;20.70;;;;;;;4.51;79.14;100999.31;695476;28;45229;-62
2020/12/14 01:35:23;;;;;;;47.28;20.42;;;;;;;4.51;79.25;101002.84;696432;28;21551;-62
2020/12/14 01:35:44;;;;;;;47.78;20.13;;;;;;;4.50;79.22;101001.16;695433;28;46528;-62
2020/12/14 01:36:06;;;;;;;48.70;20.55;;;;;;;4.50;79.33;101003.00;696918;28;3249;-62
2020/12/14 01:36:27;;;;;;;45.90;20.02;;;;;;;4.51;79.37;101002.00;696280;28;22404;-62
2020/12/14 01:36:49;;;;;;;50.42;21.20;;;;;;;4.50;79.15;101003.00;696759;28;22477;-62
2020/12/14 01:37:10;;;;;;;52.17;22.05;;;;;;;4.50;79.52;101000.31;695825;28;45483;-60
2020/12/14 01:37:31;;;;;;;54.78;21.90;;;;;;;4.50;79.43;101001.16;696533;28;23377;-61
2020/12/14 01:37:53;;;;;;;48.63;20.77;;;;;;;4.50;79.41;101003.00;695581;28;44669;-61
2020/12/14 01:38:14;;;;;;;45.78;20.13;;;;;;;4.50;79.28;100990.47;696860;28;22398;-62
2020/12/14 01:38:36;;;;;;;51.03;20.60;;;;;;;4.51;79.37;101004.66;695461;28;45413;-61
2020/12/14 01:38:58;;;;;;;50.88;21.02;;;;;;;4.50;79.52;101003.81;696294;28;21544;-61
2020/12/14 01:39:19;;;;;;;45.17;20.00;;;;;;;4.51;79.39;101005.53;696060;28;38154;-62
2020/12/14 01:39:41;;;;;;;46.85;20.48;;;;;;;4.51;79.33;100991.28;695839;28;45221;-62
2020/12/14 01:40:03;;;;;;;48.65;19.65;;;;;;;4.51;79.41;101004.66;696146;28;22409;-62
2020/12/14 01:40:24;;;;;;;50.92;20.48;;;;;;;4.50;79.43;101001.16;695545;28;46311;-62